Time;durP1;ratioP1;P1;durP2;ratioP2;P2;SDS_P1;SDS_P2;PMS_P1;PMS_P2;Temp;Humidity;BMP_temperature;BMP_pressure;BME280_temperature;BME280_humidity;BME280_pressure;Samples;Min_cycle;Max_cycle;Signal;HPM_P1;HPM_P2
2021/04/12 00:02:15;;;;;;;;;;;3.60;54.70;;;;;;5036910;28;19919;-73
2021/04/12 00:04:49;;;;;;;;;;;3.50;55.60;;;;;;5054284;28;19908;-74
2021/04/12 00:07:20;;;;;;;;;;;3.60;54.00;;;;;;5055032;28;19911;-74
2021/04/12 00:09:49;;;;;;;;;;;3.60;54.30;;;;;;5054446;28;20250;-74
2021/04/12 00:12:17;;;;;;;;;;;3.60;55.10;;;;;;5054379;28;19913;-73
2021/04/12 00:14:48;;;;;;;;;;;3.60;54.00;;;;;;5053976;28;20035;-73
2021/04/12 00:17:22;;;;;;;;;;;3.70;54.30;;;;;;5065011;28;20392;-73
2021/04/12 00:19:56;;;;;;;;;;;3.70;54.00;;;;;;5074159;28;19904;-73
2021/04/12 00:22:34;;;;;;;;;;;3.60;53.90;;;;;;5073964;28;19998;-73
2021/04/12 00:25:04;;;;;;;;;;;3.60;53.50;;;;;;5074006;28;20285;-72
2021/04/12 00:27:41;;;;;;;;;;;3.70;53.70;;;;;;5074164;28;20006;-73
2021/04/12 00:30:13;;;;;;;;;;;3.60;54.20;;;;;;5066346;28;20273;-73
2021/04/12 00:32:40;;;;;;;;;;;3.60;54.60;;;;;;5054050;28;20399;-73
2021/04/12 00:35:24;;;;;;;;;;;3.60;55.40;;;;;;5053583;28;19904;-74
2021/04/12 00:38:22;;;;;;;;;;;3.50;56.80;;;;;;5053534;28;20057;-73
2021/04/12 00:41:06;;;;;;;;;;;3.50;56.80;;;;;;5008887;28;19983;-73
2021/04/12 00:43:43;;;;;;;;;;;3.50;57.00;;;;;;5043857;28;19908;-72
2021/04/12 00:46:25;;;;;;;;;;;3.60;56.50;;;;;;5072809;28;19923;-73
2021/04/12 00:49:06;;;;;;;;;;;3.60;56.30;;;;;;5055844;28;19904;-72
2021/04/12 00:51:38;;;;;;;;;;;3.60;57.60;;;;;;5073834;28;20284;-72
2021/04/12 00:54:03;;;;;;;;;;;3.60;57.30;;;;;;5073827;28;19974;-73
2021/04/12 00:56:32;;;;;;;;;;;3.50;57.80;;;;;;5073522;28;19904;-73
2021/04/12 00:59:00;;;;;;;;;;;3.50;58.30;;;;;;5058427;28;19912;-73
2021/04/12 01:01:30;;;;;;;;;;;3.50;58.90;;;;;;5035347;28;19913;-74
2021/04/12 01:04:14;;;;;;;;;;;3.50;59.70;;;;;;5053175;28;19940;-72
2021/04/12 01:06:58;;;;;;;;;;;3.30;60.50;;;;;;5052567;28;19909;-73
2021/04/12 01:09:32;;;;;;;;;;;3.30;62.10;;;;;;5052889;28;19904;-73
2021/04/12 01:12:16;;;;;;;;;;;3.30;61.80;;;;;;5052804;28;19948;-73
2021/04/12 01:14:49;;;;;;;;;;;3.30;61.50;;;;;;5052801;28;20325;-73
2021/04/12 01:17:41;;;;;;;;;;;3.30;62.60;;;;;;5065364;28;20127;-74
2021/04/12 01:20:22;;;;;;;;;;;3.30;62.80;;;;;;5055279;28;19910;-73
2021/04/12 01:23:06;;;;;;;;;;;3.30;62.20;;;;;;5072435;28;19904;-73
2021/04/12 01:25:50;;;;;;;;;;;3.10;63.90;;;;;;5072336;28;19948;-73
2021/04/12 01:28:15;;;;;;;;;;;2.90;66.50;;;;;;5072403;28;19912;-73
2021/04/12 01:30:46;;;;;;;;;;;2.70;69.70;;;;;;5059532;28;19928;-74
2021/04/12 01:33:20;;;;;;;;;;;2.70;72.20;;;;;;5052402;28;19999;-73
2021/04/12 01:36:04;;;;;;;;;;;2.60;73.90;;;;;;5052907;28;19919;-73
2021/04/12 01:38:59;;;;;;;;;;;2.60;75.40;;;;;;5052521;28;20376;-73
2021/04/12 01:41:30;;;;;;;;;;;2.50;76.90;;;;;;5034761;28;20003;-73
2021/04/12 01:44:04;;;;;;;;;;;2.60;77.70;;;;;;5034200;28;19974;-73
2021/04/12 01:46:32;;;;;;;;;;;2.80;74.20;;;;;;5052063;28;20328;-73
2021/04/12 01:49:04;;;;;;;;;;;2.90;69.50;;;;;;5052262;28;19947;-74
2021/04/12 01:51:36;;;;;;;;;;;3.00;69.90;;;;;;5052133;28;19948;-74
2021/04/12 01:54:10;;;;;;;;;;;3.10;65.60;;;;;;5052081;28;19904;-73
2021/04/12 01:56:54;;;;;;;;;;;2.90;67.00;;;;;;5052119;28;19905;-74
2021/04/12 01:59:38;;;;;;;;;;;3.00;69.20;;;;;;5067046;28;19951;-72
2021/04/12 02:02:14;;;;;;;;;;;3.20;65.70;;;;;;5089653;28;19976;-74
2021/04/12 02:04:58;;;;;;;;;;;3.20;65.40;;;;;;5078443;28;19970;-74
2021/04/12 02:07:26;;;;;;;;;;;3.10;66.00;;;;;;5058980;28;19909;-74
2021/04/12 02:09:59;;;;;;;;;;;3.20;66.30;;;;;;5052029;28;19904;-74
2021/04/12 02:12:36;;;;;;;;;;;3.10;66.40;;;;;;5051917;28;20313;-73
2021/04/12 02:15:12;;;;;;;;;;;3.10;67.30;;;;;;5052082;28;19905;-73
2021/04/12 02:18:00;;;;;;;;;;;3.10;66.40;;;;;;5067300;28;19911;-73
2021/04/12 02:20:37;;;;;;;;;;;3.20;66.30;;;;;;5054169;28;19916;-73
2021/04/12 02:23:09;;;;;;;;;;;3.10;66.70;;;;;;5072009;28;19905;-73
2021/04/12 02:26:00;;;;;;;;;;;3.00;68.00;;;;;;5071824;28;19908;-73
2021/04/12 02:28:33;;;;;;;;;;;3.00;67.60;;;;;;5068719;28;19908;-74
2021/04/12 02:31:04;;;;;;;;;;;2.80;69.90;;;;;;5056565;28;19915;-73
2021/04/12 02:33:32;;;;;;;;;;;2.80;73.30;;;;;;5051460;28;19905;-72
2021/04/12 02:36:01;;;;;;;;;;;2.60;73.80;;;;;;5051455;28;20380;-72
2021/04/12 02:38:29;;;;;;;;;;;2.70;74.60;;;;;;5051656;28;19927;-73
2021/04/12 02:41:13;;;;;;;;;;;2.50;74.50;;;;;;5055311;28;19904;-72
2021/04/12 02:43:57;;;;;;;;;;;2.50;77.60;;;;;;5055655;28;20262;-73
2021/04/12 02:46:22;;;;;;;;;;;2.60;74.90;;;;;;5072529;28;19999;-72
2021/04/12 02:48:57;;;;;;;;;;;2.50;77.50;;;;;;5075333;28;19946;-73
2021/04/12 02:51:41;;;;;;;;;;;2.60;75.70;;;;;;5075187;28;19904;-73
2021/04/12 02:54:16;;;;;;;;;;;2.30;76.60;;;;;;5075033;28;20357;-73
2021/04/12 02:57:08;;;;;;;;;;;2.10;80.20;;;;;;5075242;28;19912;-73
2021/04/12 02:59:46;;;;;;;;;;;2.00;82.50;;;;;;5075288;28;20003;-73
2021/04/12 03:02:38;;;;;;;;;;;2.40;79.90;;;;;;5075512;28;20357;-73
2021/04/12 03:05:19;;;;;;;;;;;2.60;77.60;;;;;;5057847;28;19908;-73
2021/04/12 03:08:03;;;;;;;;;;;2.70;74.10;;;;;;5059227;28;19905;-73
2021/04/12 03:10:47;;;;;;;;;;;2.80;72.70;;;;;;5055545;28;19927;-73
2021/04/12 03:13:31;;;;;;;;;;;2.70;72.90;;;;;;5056715;28;20018;-73
2021/04/12 03:16:05;;;;;;;;;;;2.50;75.10;;;;;;5057789;28;19939;-73
2021/04/12 03:18:46;;;;;;;;;;;2.30;78.90;;;;;;5059559;28;19904;-73
2021/04/12 03:21:20;;;;;;;;;;;2.10;82.60;;;;;;5077638;28;19977;-73
2021/04/12 03:23:52;;;;;;;;;;;2.30;82.80;;;;;;5079217;28;19943;-74
2021/04/12 03:26:17;;;;;;;;;;;2.10;83.90;;;;;;5079154;28;20368;-72
2021/04/12 03:29:04;;;;;;;;;;;2.20;82.90;;;;;;5075213;28;19958;-73
2021/04/12 03:31:30;;;;;;;;;;;2.10;83.80;;;;;;5054788;28;19908;-73
2021/04/12 03:34:14;;;;;;;;;;;2.00;85.40;;;;;;5054342;28;19989;-73
2021/04/12 03:36:51;;;;;;;;;;;2.00;85.80;;;;;;5058413;28;19948;-72
2021/04/12 03:39:23;;;;;;;;;;;2.30;85.10;;;;;;5042792;28;20320;-72
2021/04/12 03:41:54;;;;;;;;;;;2.60;77.30;;;;;;5059353;28;20322;-72
2021/04/12 03:44:30;;;;;;;;;;;2.70;75.00;;;;;;5057802;28;19904;-73
2021/04/12 03:47:02;;;;;;;;;;;2.50;74.90;;;;;;5075157;28;20375;-73
2021/04/12 03:49:39;;;;;;;;;;;2.40;78.60;;;;;;5056458;28;20375;-77
2021/04/12 03:52:10;;;;;;;;;;;2.20;80.20;;;;;;5069293;28;20373;-72
2021/04/12 03:54:45;;;;;;;;;;;2.20;82.70;;;;;;5073865;28;19904;-72
2021/04/12 03:57:29;;;;;;;;;;;2.10;84.20;;;;;;5055636;28;19949;-72
2021/04/12 04:00:10;;;;;;;;;;;2.10;85.60;;;;;;5053787;28;19958;-73
2021/04/12 04:02:44;;;;;;;;;;;2.10;86.40;;;;;;5054452;28;19915;-72
2021/04/12 04:05:18;;;;;;;;;;;2.20;84.70;;;;;;5054303;28;20291;-72
2021/04/12 04:07:58;;;;;;;;;;;2.20;85.40;;;;;;5054087;28;19912;-72
2021/04/12 04:10:29;;;;;;;;;;;2.10;84.90;;;;;;5053715;28;19905;-72
2021/04/12 04:13:03;;;;;;;;;;;2.10;87.70;;;;;;5053690;28;19905;-72
2021/04/12 04:15:36;;;;;;;;;;;2.10;89.40;;;;;;5053789;28;19905;-72
2021/04/12 04:18:02;;;;;;;;;;;2.10;89.70;;;;;;5072054;28;19911;-71
2021/04/12 04:20:35;;;;;;;;;;;2.10;91.10;;;;;;5074157;28;19905;-71
2021/04/12 04:23:00;;;;;;;;;;;2.10;92.80;;;;;;5073474;28;19908;-71
2021/04/12 04:25:44;;;;;;;;;;;2.10;92.70;;;;;;5073459;28;20002;-72
2021/04/12 04:28:10;;;;;;;;;;;2.20;93.60;;;;;;5073439;28;19904;-73
2021/04/12 04:30:54;;;;;;;;;;;2.20;91.40;;;;;;5061087;28;19904;-73
2021/04/12 04:33:29;;;;;;;;;;;2.10;90.90;;;;;;5053823;28;20301;-72
2021/04/12 04:36:04;;;;;;;;;;;2.10;89.20;;;;;;5057116;28;19956;-74
2021/04/12 04:38:51;;;;;;;;;;;2.10;90.60;;;;;;5067607;28;20003;-76
2021/04/12 04:41:22;;;;;;;;;;;2.20;90.40;;;;;;5036518;28;19953;-76
2021/04/12 04:43:51;;;;;;;;;;;2.10;90.50;;;;;;5073687;28;20483;-76
2021/04/12 04:46:24;;;;;;;;;;;2.00;90.00;;;;;;5055626;28;19908;-77
2021/04/12 04:49:00;;;;;;;;;;;2.10;88.70;;;;;;5055946;28;19905;-76
2021/04/12 04:51:25;;;;;;;;;;;2.20;85.90;;;;;;5074894;28;19930;-77
2021/04/12 04:54:09;;;;;;;;;;;2.30;84.40;;;;;;5073756;28;20303;-75
2021/04/12 04:56:37;;;;;;;;;;;2.20;84.40;;;;;;5069315;28;19995;-76
2021/04/12 04:59:21;;;;;;;;;;;2.20;84.30;;;;;;5046699;28;19966;-75
2021/04/12 05:01:55;;;;;;;;;;;2.30;83.90;;;;;;5055085;28;19935;-75
2021/04/12 05:04:39;;;;;;;;;;;2.20;85.00;;;;;;5069705;28;19912;-77
2021/04/12 05:07:22;;;;;;;;;;;2.20;85.70;;;;;;5061643;28;19912;-75
2021/04/12 05:09:51;;;;;;;;;;;2.30;85.30;;;;;;5061382;28;19912;-75
2021/04/12 05:12:22;;;;;;;;;;;2.30;83.90;;;;;;5070163;28;20395;-75
2021/04/12 05:15:06;;;;;;;;;;;2.40;82.80;;;;;;5073307;28;19905;-75
2021/04/12 05:17:50;;;;;;;;;;;2.40;82.40;;;;;;5072832;28;19908;-74
2021/04/12 05:20:34;;;;;;;;;;;2.40;82.60;;;;;;5056381;28;19905;-76
2021/04/12 05:23:14;;;;;;;;;;;2.50;84.50;;;;;;5062354;28;19908;-76
2021/04/12 05:25:58;;;;;;;;;;;2.60;87.80;;;;;;5063892;28;20007;-76
2021/04/12 05:28:31;;;;;;;;;;;2.70;88.30;;;;;;5053279;28;19905;-76
2021/04/12 05:31:00;;;;;;;;;;;2.90;86.70;;;;;;5055895;28;20350;-76
2021/04/12 05:33:34;;;;;;;;;;;3.10;79.80;;;;;;5052725;28;19905;-76
2021/04/12 05:36:11;;;;;;;;;;;3.30;73.40;;;;;;5052681;28;19916;-76
2021/04/12 05:38:47;;;;;;;;;;;3.50;71.70;;;;;;5052931;28;20017;-75
2021/04/12 05:41:21;;;;;;;;;;;3.60;66.50;;;;;;5055064;28;20282;-76
2021/04/12 05:43:56;;;;;;;;;;;3.70;65.60;;;;;;5053851;28;19908;-75
2021/04/12 05:46:28;;;;;;;;;;;3.80;66.00;;;;;;5071804;28;20380;-76
2021/04/12 05:49:12;;;;;;;;;;;3.80;65.70;;;;;;5065143;28;19955;-76
2021/04/12 05:52:13;;;;;;;;;;;3.80;67.90;;;;;;5052584;28;19904;-76
2021/04/12 05:54:57;;;;;;;;;;;3.90;63.80;;;;;;4971205;28;20363;-75
2021/04/12 05:57:41;;;;;;;;;;;4.10;61.20;;;;;;5061983;28;19940;-75
2021/04/12 06:00:25;;;;;;;;;;;4.20;60.20;;;;;;5034916;28;19950;-75
2021/04/12 06:02:51;;;;;;;;;;;4.20;59.40;;;;;;5052213;28;20048;-76
2021/04/12 06:05:19;;;;;;;;;;;4.20;60.20;;;;;;5034320;28;19909;-75
2021/04/12 06:08:04;;;;;;;;;;;4.40;58.40;;;;;;5068031;28;20381;-76
2021/04/12 06:10:36;;;;;;;;;;;4.40;57.20;;;;;;5053735;28;20028;-76
2021/04/12 06:13:20;;;;;;;;;;;4.50;59.10;;;;;;5071874;28;19909;-76
2021/04/12 06:15:51;;;;;;;;;;;4.60;56.60;;;;;;5075798;28;19904;-76
2021/04/12 06:18:28;;;;;;;;;;;4.70;54.50;;;;;;5057612;28;19943;-74
2021/04/12 06:21:02;;;;;;;;;;;4.70;53.30;;;;;;5056855;28;19931;-74
2021/04/12 06:23:35;;;;;;;;;;;4.70;54.10;;;;;;5057372;28;20229;-75
2021/04/12 06:26:00;;;;;;;;;;;4.60;54.30;;;;;;5052570;28;19920;-75
2021/04/12 06:28:37;;;;;;;;;;;4.60;55.00;;;;;;5061066;28;19912;-75
2021/04/12 06:31:22;;;;;;;;;;;4.70;55.20;;;;;;5063590;28;20396;-75
2021/04/12 06:34:00;;;;;;;;;;;4.80;55.80;;;;;;5068291;28;20007;-75
2021/04/12 06:36:31;;;;;;;;;;;5.00;53.90;;;;;;5067312;28;19932;-75
2021/04/12 06:39:06;;;;;;;;;;;5.20;54.10;;;;;;5075767;28;20427;-75
2021/04/12 06:41:50;;;;;;;;;;;5.40;51.40;;;;;;5073933;28;19909;-73
2021/04/12 06:44:34;;;;;;;;;;;5.60;50.40;;;;;;5069545;28;20336;-74
2021/04/12 06:47:11;;;;;;;;;;;5.80;47.60;;;;;;5062924;28;19919;-76
2021/04/12 06:49:39;;;;;;;;;;;5.90;46.10;;;;;;5075580;28;19908;-76
2021/04/12 06:52:23;;;;;;;;;;;5.90;45.50;;;;;;5062812;28;19940;-75
2021/04/12 06:55:03;;;;;;;;;;;5.90;45.40;;;;;;5065939;28;19908;-76
2021/04/12 06:57:48;;;;;;;;;;;5.80;45.90;;;;;;5064365;28;19973;-76
2021/04/12 07:00:29;;;;;;;;;;;5.80;46.40;;;;;;5072160;28;20372;-76
2021/04/12 07:02:55;;;;;;;;;;;5.90;46.00;;;;;;5068255;28;19909;-76
2021/04/12 07:05:29;;;;;;;;;;;5.90;46.40;;;;;;5071035;28;19939;-76
2021/04/12 07:08:13;;;;;;;;;;;6.10;46.20;;;;;;5058806;28;19991;-74
2021/04/12 07:11:00;;;;;;;;;;;6.20;43.80;;;;;;5048179;28;20246;-78
2021/04/12 07:13:26;;;;;;;;;;;6.20;43.80;;;;;;5065713;28;19916;-73
2021/04/12 07:16:00;;;;;;;;;;;6.10;43.20;;;;;;5073238;28;20296;-74
2021/04/12 07:18:37;;;;;;;;;;;6.00;43.50;;;;;;5064760;28;19909;-73
2021/04/12 07:21:05;;;;;;;;;;;5.90;45.60;;;;;;5064926;28;19930;-73
2021/04/12 07:23:50;;;;;;;;;;;5.90;47.80;;;;;;5062160;28;19908;-73
2021/04/12 07:26:15;;;;;;;;;;;6.00;48.30;;;;;;5070473;28;19973;-73
2021/04/12 07:28:59;;;;;;;;;;;6.20;46.50;;;;;;5067362;28;19922;-74
2021/04/12 07:31:43;;;;;;;;;;;6.40;46.70;;;;;;5066371;28;19908;-73
2021/04/12 07:34:24;;;;;;;;;;;6.60;42.50;;;;;;5065914;28;19915;-75
2021/04/12 07:36:56;;;;;;;;;;;6.70;40.80;;;;;;5067313;28;19913;-76
2021/04/12 07:39:33;;;;;;;;;;;6.70;41.80;;;;;;5061325;28;19968;-77
2021/04/12 07:42:18;;;;;;;;;;;6.70;41.70;;;;;;5048382;28;19995;-78
2021/04/12 07:44:58;;;;;;;;;;;6.60;42.20;;;;;;5058625;28;19940;-76
2021/04/12 07:47:46;;;;;;;;;;;6.30;44.50;;;;;;5052571;28;19914;-74
2021/04/12 07:50:30;;;;;;;;;;;6.30;45.70;;;;;;5060639;28;19909;-75
2021/04/12 07:53:14;;;;;;;;;;;6.10;46.80;;;;;;5053871;28;20365;-75
2021/04/12 07:55:39;;;;;;;;;;;5.90;47.40;;;;;;5067935;28;19936;-75
2021/04/12 07:58:11;;;;;;;;;;;5.80;50.80;;;;;;5060704;28;19912;-75
2021/04/12 08:00:55;;;;;;;;;;;5.80;51.30;;;;;;5055276;28;19970;-75
2021/04/12 08:03:39;;;;;;;;;;;6.00;52.10;;;;;;5054612;28;19962;-76
2021/04/12 08:06:23;;;;;;;;;;;6.10;49.00;;;;;;5041927;28;19913;-75
2021/04/12 08:09:07;;;;;;;;;;;6.20;48.90;;;;;;5065101;28;19920;-78
2021/04/12 08:11:51;;;;;;;;;;;6.30;46.90;;;;;;5071665;28;20003;-77
2021/04/12 08:14:20;;;;;;;;;;;6.50;46.00;;;;;;5064136;28;19908;-78
2021/04/12 08:17:05;;;;;;;;;;;6.70;44.30;;;;;;5067323;28;19908;-78
2021/04/12 08:19:42;;;;;;;;;;;7.10;42.50;;;;;;5056002;28;19927;-78
2021/04/12 08:22:16;;;;;;;;;;;7.70;38.50;;;;;;5075496;28;20266;-78
2021/04/12 08:24:51;;;;;;;;;;;8.00;36.20;;;;;;5067237;28;20446;-78
2021/04/12 08:27:36;;;;;;;;;;;8.20;34.90;;;;;;5054460;28;19908;-78
2021/04/12 08:30:11;;;;;;;;;;;8.50;33.20;;;;;;5063515;28;19908;-79
2021/04/12 08:32:56;;;;;;;;;;;8.80;33.10;;;;;;5069534;28;20421;-78
2021/04/12 08:35:24;;;;;;;;;;;9.20;28.20;;;;;;5042191;28;19909;-76
2021/04/12 08:37:59;;;;;;;;;;;9.40;26.50;;;;;;5056471;28;20426;-77
2021/04/12 08:40:27;;;;;;;;;;;9.60;26.30;;;;;;5045837;28;19908;-77
2021/04/12 08:42:56;;;;;;;;;;;9.70;26.30;;;;;;5056727;28;20262;-77
2021/04/12 08:45:40;;;;;;;;;;;9.80;26.30;;;;;;5051560;28;19912;-78
2021/04/12 08:48:17;;;;;;;;;;;10.00;23.40;;;;;;5053290;28;19909;-77
2021/04/12 08:50:51;;;;;;;;;;;10.10;22.90;;;;;;5048423;28;19905;-77
2021/04/12 08:53:35;;;;;;;;;;;10.00;23.40;;;;;;5075076;28;19922;-76
2021/04/12 08:56:23;;;;;;;;;;;9.60;24.20;;;;;;5059645;28;19908;-78
2021/04/12 08:59:03;;;;;;;;;;;9.30;27.90;;;;;;5079725;28;19999;-78
2021/04/12 09:01:29;;;;;;;;;;;9.10;28.00;;;;;;5070929;28;19908;-78
2021/04/12 09:04:08;;;;;;;;;;;8.90;29.00;;;;;;5060647;28;19971;-76
2021/04/12 09:06:52;;;;;;;;;;;8.70;28.30;;;;;;5067947;28;20288;-78
2021/04/12 09:09:36;;;;;;;;;;;8.30;30.60;;;;;;5048764;28;20007;-77
2021/04/12 09:12:20;;;;;;;;;;;8.00;31.60;;;;;;5073860;28;19908;-77
2021/04/12 09:14:48;;;;;;;;;;;7.90;32.50;;;;;;5066961;28;19916;-77
2021/04/12 09:17:24;;;;;;;;;;;8.00;32.90;;;;;;5067595;28;19909;-74
2021/04/12 09:19:55;;;;;;;;;;;7.90;33.10;;;;;;5064232;28;20420;-75
2021/04/12 09:22:39;;;;;;;;;;;7.90;31.50;;;;;;5069093;28;19959;-75
2021/04/12 09:25:18;;;;;;;;;;;8.00;32.40;;;;;;5043941;28;20380;-75
2021/04/12 09:27:50;;;;;;;;;;;8.00;31.20;;;;;;5055428;28;19910;-75
2021/04/12 09:30:18;;;;;;;;;;;8.10;30.40;;;;;;5071770;28;19919;-76
2021/04/12 09:33:03;;;;;;;;;;;8.20;29.00;;;;;;5064303;28;19921;-75
2021/04/12 09:35:37;;;;;;;;;;;8.20;29.40;;;;;;5066095;28;19909;-76
2021/04/12 09:38:21;;;;;;;;;;;8.10;30.80;;;;;;5072169;28;19961;-74
2021/04/12 09:40:52;;;;;;;;;;;8.30;29.80;;;;;;5059582;28;19912;-74
2021/04/12 09:43:30;;;;;;;;;;;8.70;27.80;;;;;;5066987;28;19913;-74
2021/04/12 09:46:11;;;;;;;;;;;8.80;25.30;;;;;;5069669;28;19995;-74
2021/04/12 09:48:55;;;;;;;;;;;8.80;21.80;;;;;;5068523;28;20330;-74
2021/04/12 09:51:39;;;;;;;;;;;9.00;21.70;;;;;;5068514;28;19923;-75
2021/04/12 09:54:10;;;;;;;;;;;9.10;20.70;;;;;;5062708;28;20245;-77
2021/04/12 09:56:54;;;;;;;;;;;9.20;20.50;;;;;;5053640;28;20312;-76
2021/04/12 09:59:28;;;;;;;;;;;9.00;22.20;;;;;;5068980;28;19915;-76
2021/04/12 10:02:19;;;;;;;;;;;9.30;22.20;;;;;;5066588;28;20390;-76
2021/04/12 10:04:56;;;;;;;;;;;9.50;22.50;;;;;;5068622;28;20388;-75
2021/04/12 10:07:41;;;;;;;;;;;9.70;20.70;;;;;;5066821;28;19916;-75
2021/04/12 10:10:12;;;;;;;;;;;9.80;18.70;;;;;;5065237;28;19956;-76
2021/04/12 10:13:16;;;;;;;;;;;9.70;17.80;;;;;;5060389;28;19908;-78
2021/04/12 10:16:02;;;;;;;;;;;9.90;15.80;;;;;;4997932;28;19913;-78
2021/04/12 10:18:30;;;;;;;;;;;10.10;14.30;;;;;;4988964;28;19924;-76
2021/04/12 10:21:14;;;;;;;;;;;10.20;14.20;;;;;;5047474;28;19952;-74
2021/04/12 10:23:41;;;;;;;;;;;10.00;13.30;;;;;;5063969;28;19908;-74
2021/04/12 10:26:28;;;;;;;;;;;10.30;14.90;;;;;;5067924;28;20001;-74
2021/04/12 10:29:00;;;;;;;;;;;10.70;13.80;;;;;;5058654;28;19930;-75
2021/04/12 10:31:30;;;;;;;;;;;11.20;12.10;;;;;;5071269;28;19908;-73
2021/04/12 10:34:11;;;;;;;;;;;11.40;11.10;;;;;;5065862;28;20414;-73
2021/04/12 10:36:39;;;;;;;;;;;11.40;10.80;;;;;;5062439;28;19971;-72
2021/04/12 10:39:07;;;;;;;;;;;11.20;10.70;;;;;;5045982;28;19912;-75
2021/04/12 10:41:55;;;;;;;;;;;10.70;10.90;;;;;;5060265;28;19905;-75
2021/04/12 10:44:28;;;;;;;;;;;10.20;11.90;;;;;;5068637;28;19908;-74
2021/04/12 10:46:59;;;;;;;;;;;9.70;13.10;;;;;;5071329;28;20377;-74
2021/04/12 10:49:33;;;;;;;;;;;9.10;15.90;;;;;;5070701;28;19904;-74
2021/04/12 10:52:03;;;;;;;;;;;7.90;27.10;;;;;;5063987;28;19999;-74
2021/04/12 10:54:43;;;;;;;4.40;1.80;;;5.80;43.10;;;;;;5064737;28;20457;-74
2021/04/12 10:57:41;;;;;;;2.90;1.90;;;5.60;47.40;;;;;;5064819;28;20858;-77
2021/04/12 11:00:44;;;;;;;2.20;1.75;;;5.10;53.30;;;;;;5043719;28;20403;-73
2021/04/12 11:03:16;;;;;;;2.15;2.05;;;5.00;52.90;;;;;;5064030;28;20758;-74
2021/04/12 11:05:46;;;;;;;1.80;1.65;;;5.20;53.00;;;;;;5053346;28;20459;-74
2021/04/12 11:08:11;;;;;;;3.30;1.70;;;5.30;52.80;;;;;;5071193;28;20391;-74
2021/04/12 11:11:10;;;;;;;2.10;1.70;;;5.30;50.90;;;;;;5055257;28;20827;-74
2021/04/12 11:13:55;;;;;;;2.22;1.90;;;5.10;56.80;;;;;;5073853;28;20392;-75
2021/04/12 11:16:38;;;;;;;2.50;2.28;;;4.80;63.40;;;;;;5067747;28;20378;-74
2021/04/12 11:19:16;;;;;;;2.85;2.65;;;4.40;64.00;;;;;;5060864;28;20511;-75
2021/04/12 11:21:51;;;;;;;2.60;2.40;;;4.50;67.30;;;;;;5054154;28;20430;-74
2021/04/12 11:24:24;;;;;;;4.13;2.90;;;4.40;66.40;;;;;;5064163;28;20420;-73
2021/04/12 11:27:27;;;;;;;5.15;3.17;;;4.60;64.30;;;;;;5065154;28;20422;-73
2021/04/12 11:30:32;;;;;;;2.83;2.70;;;4.90;64.70;;;;;;5065443;28;20376;-74
2021/04/12 11:33:23;;;;;;;4.50;2.50;;;5.40;55.30;;;;;;5026336;28;20950;-73
2021/04/12 11:36:22;;;;;;;2.70;2.40;;;6.10;52.40;;;;;;5057978;28;20471;-73
2021/04/12 11:39:38;;;;;;;1.73;1.63;;;6.60;44.50;;;;;;5065621;28;20874;-74
2021/04/12 11:42:17;;;;;;;2.70;1.80;;;6.80;44.30;;;;;;4955115;28;20416;-74
2021/04/12 11:44:58;;;;;;;2.60;2.13;;;7.00;45.40;;;;;;4964220;28;20391;-75
2021/04/12 11:48:01;;;;;;;2.88;2.50;;;7.00;40.00;;;;;;5036740;28;20456;-74
2021/04/12 11:50:51;;;;;;;3.50;2.40;;;6.80;43.90;;;;;;5057096;28;20397;-74
2021/04/12 11:53:38;;;;;;;3.08;2.70;;;6.90;41.70;;;;;;5063644;28;20383;-74
2021/04/12 11:56:18;;;;;;;4.32;2.30;;;6.80;47.60;;;;;;5062775;28;20404;-77
2021/04/12 11:58:49;;;;;;;4.38;2.58;;;6.90;48.80;;;;;;5064342;28;20398;-77
2021/04/12 12:01:38;;;;;;;3.35;2.80;;;7.10;46.50;;;;;;5056470;28;20428;-77
2021/04/12 12:04:17;;;;;;;3.28;3.00;;;7.40;43.30;;;;;;5049438;28;20431;-75
2021/04/12 12:06:55;;;;;;;5.95;3.40;;;7.60;43.50;;;;;;5068578;28;20434;-75
2021/04/12 12:09:32;;;;;;;5.78;2.80;;;7.50;40.80;;;;;;5070772;28;20528;-75
2021/04/12 12:12:18;;;;;;;6.70;2.77;;;7.60;38.20;;;;;;5044707;28;20780;-75
2021/04/12 12:15:06;;;;;;;3.67;2.80;;;7.30;32.10;;;;;;5071750;28;20414;-75
2021/04/12 12:17:45;;;;;;;4.72;2.90;;;7.60;33.60;;;;;;5039654;28;20437;-76
2021/04/12 12:20:22;;;;;;;6.20;3.53;;;7.70;30.00;;;;;;5064997;28;20844;-76
2021/04/12 12:23:10;;;;;;;6.65;3.10;;;7.90;29.00;;;;;;5071935;28;20384;-76
2021/04/12 12:25:49;;;;;;;6.60;3.70;;;8.30;25.80;;;;;;5073175;28;20414;-76
2021/04/12 12:28:51;;;;;;;8.93;3.90;;;8.40;23.30;;;;;;5071765;28;20411;-76
2021/04/12 12:31:34;;;;;;;5.60;3.37;;;8.20;25.70;;;;;;5053771;28;20469;-76
2021/04/12 12:34:29;;;;;;;4.50;3.50;;;8.00;26.10;;;;;;5051445;28;20508;-76
2021/04/12 12:37:01;;;;;;;5.80;3.88;;;7.80;27.20;;;;;;5051443;28;20431;-76
2021/04/12 12:39:33;;;;;;;7.65;3.70;;;7.90;28.10;;;;;;5051573;28;20400;-76
2021/04/12 12:42:02;;;;;;;3.90;3.60;;;7.90;29.50;;;;;;5051664;28;20757;-76
2021/04/12 12:44:29;;;;;;;3.88;3.40;;;8.10;29.40;;;;;;5051478;28;20750;-77
2021/04/12 12:46:56;;;;;;;3.70;2.38;;;8.10;28.00;;;;;;5051328;28;20412;-76
2021/04/12 12:49:29;;;;;;;2.60;2.40;;;7.50;30.90;;;;;;5052157;28;20389;-74
2021/04/12 12:52:12;;;;;;;5.70;2.85;;;7.00;36.20;;;;;;5052774;28;20433;-74
2021/04/12 12:54:47;;;;;;;3.97;2.93;;;6.70;40.10;;;;;;5051508;28;20395;-75
2021/04/12 12:57:26;;;;;;;3.50;2.80;;;6.50;44.50;;;;;;5052444;28;20447;-77
2021/04/12 12:59:59;;;;;;;3.00;2.80;;;6.20;48.10;;;;;;5071388;28;20428;-77
2021/04/12 13:02:25;;;;;;;4.85;3.00;;;5.90;51.80;;;;;;5054844;28;20706;-78
2021/04/12 13:04:59;;;;;;;4.60;3.53;;;5.90;54.00;;;;;;5039950;28;20418;-79
2021/04/12 13:07:29;;;;;;;5.70;4.05;;;6.50;53.90;;;;;;5043663;28;20395;-77
2021/04/12 13:09:58;;;;;;;7.78;4.43;;;7.60;51.30;;;;;;5060932;28;20936;-77
2021/04/12 13:12:31;;;;;;;8.30;4.00;;;8.60;44.90;;;;;;5061119;28;20399;-78
2021/04/12 13:15:08;;;;;;;4.32;3.35;;;9.50;36.80;;;;;;5066247;28;20618;-77
2021/04/12 13:17:35;;;;;;;3.50;3.05;;;10.30;30.50;;;;;;5056764;28;20406;-77
2021/04/12 13:20:07;;;;;;;5.20;3.22;;;10.80;28.70;;;;;;5045074;28;20436;-77
2021/04/12 13:22:36;;;;;;;4.32;3.20;;;11.30;26.00;;;;;;5060035;28;20833;-76
2021/04/12 13:25:35;;;;;;;3.70;2.85;;;11.40;24.30;;;;;;5063419;28;20403;-76
2021/04/12 13:28:08;;;;;;;8.30;3.92;;;10.90;22.80;;;;;;5051336;28;20400;-76
2021/04/12 13:30:36;;;;;;;5.93;4.03;;;10.70;24.40;;;;;;5052479;28;20413;-76
2021/04/12 13:33:14;;;;;;;3.38;2.90;;;10.70;27.90;;;;;;5042242;28;20397;-75
2021/04/12 13:35:42;;;;;;;5.32;2.80;;;11.00;23.70;;;;;;5071352;28;20392;-78
2021/04/12 13:38:18;;;;;;;3.43;2.77;;;10.90;17.80;;;;;;5064003;28;20405;-76
2021/04/12 13:41:01;;;;;;;2.90;2.70;;;10.90;17.40;;;;;;5052634;28;20388;-76
2021/04/12 13:43:31;;;;;;;2.90;2.70;;;11.00;16.90;;;;;;5069672;28;20521;-78
2021/04/12 13:46:12;;;;;;;3.88;2.65;;;11.00;16.40;;;;;;5067527;28;20408;-76
2021/04/12 13:48:40;;;;;;;3.70;2.53;;;11.30;18.60;;;;;;5067134;28;20401;-77
2021/04/12 13:51:33;;;;;;;4.78;2.70;;;11.80;13.30;;;;;;5067239;28;20455;-77
2021/04/12 13:54:26;;;;;;;6.72;2.78;;;12.20;11.50;;;;;;5042823;28;20393;-78
2021/04/12 13:56:57;;;;;;;2.40;2.20;;;12.50;10.50;;;;;;5055165;28;20452;-76
2021/04/12 13:59:28;;;;;;;3.70;2.28;;;12.30;9.80;;;;;;5061179;28;20749;-76
2021/04/12 14:02:03;;;;;;;3.58;2.40;;;12.20;11.40;;;;;;5054115;28;20777;-76
2021/04/12 14:04:39;;;;;;;3.13;2.50;;;11.50;12.30;;;;;;5062167;28;20382;-77
2021/04/12 14:07:17;;;;;;;2.53;2.30;;;10.70;12.40;;;;;;5069865;28;20412;-76
2021/04/12 14:10:06;;;;;;;2.10;1.80;;;10.10;14.70;;;;;;5058675;28;20908;-76
2021/04/12 14:12:45;;;;;;;1.88;1.70;;;9.60;16.60;;;;;;5052981;28;20408;-76
2021/04/12 14:15:15;;;;;;;4.30;1.80;;;9.40;16.60;;;;;;5063411;28;20412;-77
2021/04/12 14:17:48;;;;;;;3.00;2.00;;;9.20;16.90;;;;;;5059115;28;20399;-76
2021/04/12 14:20:42;;;;;;;2.70;2.20;;;9.90;14.60;;;;;;5051898;28;20404;-76
2021/04/12 14:23:24;;;;;;;3.95;1.90;;;11.00;11.70;;;;;;5062192;28;20445;-77
2021/04/12 14:25:58;;;;;;;3.20;1.90;;;12.00;10.40;;;;;;5071867;28;20970;-77
2021/04/12 14:28:31;;;;;;;2.40;2.20;;;12.60;8.60;;;;;;5046009;28;20945;-76
2021/04/12 14:31:16;;;;;;;6.30;2.20;;;13.20;8.40;;;;;;5063845;28;20395;-76
2021/04/12 14:33:45;;;;;;;2.40;2.20;;;14.10;7.50;;;;;;5062053;28;20427;-78
2021/04/12 14:36:19;;;;;;;3.17;2.28;;;13.80;6.90;;;;;;5064262;28;20399;-75
2021/04/12 14:38:47;;;;;;;2.90;2.40;;;12.50;8.50;;;;;;5068057;28;20398;-76
2021/04/12 14:41:24;;;;;;;3.10;2.10;;;12.00;9.20;;;;;;5072555;28;20496;-75
2021/04/12 14:44:10;;;;;;;2.50;2.30;;;12.30;9.80;;;;;;5084257;28;20426;-75
2021/04/12 14:46:50;;;;;;;4.37;3.20;;;13.60;7.90;;;;;;5075356;28;20432;-76
2021/04/12 14:49:24;;;;;;;3.80;3.20;;;13.30;6.60;;;;;;5073876;28;20396;-76
2021/04/12 14:51:56;;;;;;;5.43;3.17;;;11.20;9.20;;;;;;5056013;28;20377;-76
2021/04/12 14:54:23;;;;;;;4.63;2.80;;;11.40;9.10;;;;;;5069754;28;20388;-76
2021/04/12 14:57:05;;;;;;;3.67;2.58;;;11.00;9.50;;;;;;5066638;28;20387;-77
2021/04/12 14:59:54;;;;;;;3.25;2.90;;;10.70;10.50;;;;;;5062978;28;20833;-76
2021/04/12 15:02:45;;;;;;;2.50;2.30;;;10.90;11.00;;;;;;5042172;28;20484;-76